Time;durP1;ratioP1;P1;durP2;ratioP2;P2;SDS_P1;SDS_P2;PMS_P1;PMS_P2;Temp;Humidity;BMP_temperature;BMP_pressure;BME280_temperature;BME280_humidity;BME280_pressure;Samples;Min_cycle;Max_cycle;Signal;HPM_P1;HPM_P2
2019/07/04 00:00:53;;;;;;;2.66;1.53;;;;;;;23.42;48.63;101140.07;;;;-47
2019/07/04 00:03:53;;;;;;;1.70;1.60;;;;;;;23.42;48.67;101141.86;;;;-47
2019/07/04 00:06:53;;;;;;;1.70;1.60;;;;;;;23.41;48.67;101140.30;;;;-51
2019/07/04 00:09:53;;;;;;;1.60;1.50;;;;;;;23.41;48.72;101139.89;;;;-51
2019/07/04 00:12:53;;;;;;;1.70;1.60;;;;;;;23.41;48.66;101142.15;;;;-52
2019/07/04 00:15:53;;;;;;;1.75;1.56;;;;;;;23.41;48.71;101146.03;;;;-51
2019/07/04 00:18:53;;;;;;;1.69;1.59;;;;;;;23.40;48.74;101147.67;;;;-50
2019/07/04 00:21:53;;;;;;;1.60;1.50;;;;;;;23.39;48.74;101149.83;;;;-51
2019/07/04 00:24:53;;;;;;;1.59;1.49;;;;;;;23.40;48.83;101155.03;;;;-57
2019/07/04 00:27:53;;;;;;;1.59;1.49;;;;;;;23.40;48.76;101155.53;;;;-56
2019/07/04 00:30:53;;;;;;;1.62;1.52;;;;;;;23.39;48.77;101156.84;;;;-51
2019/07/04 00:33:53;;;;;;;1.60;1.50;;;;;;;23.40;48.77;101159.88;;;;-57
2019/07/04 00:36:53;;;;;;;1.99;1.65;;;;;;;23.39;48.83;101168.20;;;;-47
2019/07/04 00:39:53;;;;;;;1.71;1.53;;;;;;;23.39;48.84;101170.66;;;;-49
2019/07/04 00:42:53;;;;;;;1.86;1.65;;;;;;;23.39;48.87;101167.36;;;;-49
2019/07/04 00:45:53;;;;;;;1.77;1.59;;;;;;;23.38;48.79;101166.14;;;;-47
2019/07/04 00:48:53;;;;;;;1.64;1.54;;;;;;;23.38;48.82;101162.09;;;;-47
2019/07/04 00:51:53;;;;;;;1.63;1.53;;;;;;;23.38;48.86;101164.73;;;;-47
2019/07/04 00:54:53;;;;;;;1.51;1.41;;;;;;;23.38;48.87;101161.08;;;;-47
2019/07/04 00:57:53;;;;;;;1.50;1.40;;;;;;;23.38;48.80;101159.30;;;;-47
2019/07/04 01:00:53;;;;;;;1.50;1.40;;;;;;;23.37;48.88;101160.64;;;;-47
2019/07/04 01:03:52;;;;;;;1.79;1.50;;;;;;;23.37;48.85;101159.19;;;;-47
2019/07/04 01:06:53;;;;;;;1.61;1.51;;;;;;;23.36;48.84;101151.91;;;;-47
2019/07/04 01:09:53;;;;;;;1.59;1.49;;;;;;;23.36;48.91;101152.84;;;;-48
2019/07/04 01:12:53;;;;;;;1.43;1.33;;;;;;;23.37;48.89;101157.00;;;;-47
2019/07/04 01:15:53;;;;;;;1.63;1.49;;;;;;;23.36;48.86;101154.09;;;;-48
2019/07/04 01:18:54;;;;;;;1.80;1.50;;;;;;;23.36;48.88;101150.55;;;;-47
2019/07/04 01:21:53;;;;;;;1.58;1.48;;;;;;;23.35;48.99;101150.01;;;;-47
2019/07/04 01:24:53;;;;;;;2.63;1.59;;;;;;;23.35;48.86;101152.03;;;;-48
2019/07/04 01:27:52;;;;;;;1.57;1.47;;;;;;;23.35;48.95;101148.48;;;;-47
2019/07/04 01:30:53;;;;;;;1.39;1.29;;;;;;;23.35;48.92;101147.24;;;;-47
2019/07/04 01:33:53;;;;;;;1.58;1.48;;;;;;;23.35;48.98;101144.04;;;;-47
2019/07/04 01:36:53;;;;;;;1.71;1.51;;;;;;;23.35;48.93;101147.81;;;;-48
2019/07/04 01:39:55;;;;;;;1.83;1.51;;;;;;;23.35;48.98;101145.86;;;;-50
2019/07/04 01:42:53;;;;;;;1.57;1.47;;;;;;;23.35;48.96;101149.23;;;;-47
2019/07/04 01:45:53;;;;;;;2.07;1.56;;;;;;;23.34;49.00;101145.14;;;;-48
2019/07/04 01:48:53;;;;;;;1.60;1.50;;;;;;;23.34;48.98;101145.92;;;;-47
2019/07/04 01:51:53;;;;;;;1.57;1.47;;;;;;;23.34;49.00;101153.44;;;;-48
2019/07/04 01:54:53;;;;;;;1.55;1.45;;;;;;;23.34;49.03;101151.15;;;;-48
2019/07/04 01:57:53;;;;;;;1.60;1.50;;;;;;;23.34;48.95;101150.88;;;;-47
2019/07/04 02:00:53;;;;;;;1.60;1.50;;;;;;;23.34;49.08;101149.80;;;;-48
2019/07/04 02:03:53;;;;;;;1.70;1.60;;;;;;;23.33;49.00;101155.09;;;;-47
2019/07/04 02:06:52;;;;;;;1.60;1.50;;;;;;;23.33;49.09;101150.94;;;;-47
2019/07/04 02:09:53;;;;;;;1.49;1.39;;;;;;;23.33;49.01;101152.63;;;;-47
2019/07/04 02:12:53;;;;;;;1.70;1.49;;;;;;;23.32;49.00;101147.80;;;;-47
2019/07/04 02:15:53;;;;;;;1.57;1.40;;;;;;;23.32;49.02;101143.19;;;;-47
2019/07/04 02:18:53;;;;;;;1.40;1.30;;;;;;;23.31;49.01;101134.55;;;;-48
2019/07/04 02:21:53;;;;;;;1.83;1.50;;;;;;;23.32;49.06;101139.09;;;;-48
2019/07/04 02:24:53;;;;;;;1.57;1.47;;;;;;;23.31;49.06;101141.96;;;;-47
2019/07/04 02:27:53;;;;;;;1.50;1.40;;;;;;;23.32;49.08;101144.22;;;;-47
2019/07/04 02:30:52;;;;;;;1.63;1.53;;;;;;;23.31;49.08;101140.68;;;;-48
2019/07/04 02:33:53;;;;;;;2.01;1.40;;;;;;;23.31;49.06;101139.40;;;;-47
2019/07/04 02:36:53;;;;;;;1.71;1.51;;;;;;;23.31;49.04;101143.84;;;;-47
2019/07/04 02:39:53;;;;;;;1.92;1.40;;;;;;;23.31;49.04;101143.34;;;;-47
2019/07/04 02:42:53;;;;;;;1.67;1.57;;;;;;;23.30;49.09;101137.61;;;;-47
2019/07/04 02:45:52;;;;;;;1.50;1.40;;;;;;;23.30;49.07;101132.38;;;;-47
2019/07/04 02:48:53;;;;;;;1.60;1.50;;;;;;;23.30;49.07;101136.09;;;;-48
2019/07/04 02:51:53;;;;;;;1.52;1.40;;;;;;;23.31;49.10;101139.91;;;;-47
2019/07/04 02:54:53;;;;;;;1.70;1.60;;;;;;;23.29;49.10;101138.98;;;;-48
2019/07/04 02:57:53;;;;;;;1.65;1.55;;;;;;;23.29;49.12;101140.70;;;;-47
2019/07/04 03:00:53;;;;;;;1.60;1.50;;;;;;;23.29;49.13;101144.08;;;;-47
2019/07/04 03:03:52;;;;;;;1.53;1.43;;;;;;;23.29;49.14;101141.41;;;;-47
2019/07/04 03:06:53;;;;;;;1.51;1.41;;;;;;;23.29;49.09;101143.87;;;;-49
2019/07/04 03:09:53;;;;;;;1.61;1.51;;;;;;;23.29;49.14;101142.35;;;;-48
2019/07/04 03:12:53;;;;;;;1.52;1.42;;;;;;;23.28;49.17;101143.66;;;;-47
2019/07/04 03:15:53;;;;;;;1.51;1.41;;;;;;;23.28;49.15;101141.87;;;;-47
2019/07/04 03:18:53;;;;;;;1.80;1.50;;;;;;;23.28;49.15;101142.55;;;;-47
2019/07/04 03:21:52;;;;;;;1.50;1.40;;;;;;;23.28;49.15;101144.23;;;;-47
2019/07/04 03:24:53;;;;;;;1.63;1.53;;;;;;;23.28;49.15;101144.40;;;;-47
2019/07/04 03:27:52;;;;;;;1.79;1.55;;;;;;;23.27;49.17;101148.78;;;;-47
2019/07/04 03:30:53;;;;;;;1.50;1.40;;;;;;;23.27;49.17;101154.84;;;;-47
2019/07/04 03:33:52;;;;;;;1.59;1.49;;;;;;;23.27;49.16;101155.35;;;;-47
2019/07/04 03:36:53;;;;;;;1.69;1.59;;;;;;;23.27;49.19;101160.81;;;;-48
2019/07/04 03:39:53;;;;;;;1.60;1.50;;;;;;;23.26;49.21;101158.00;;;;-47
2019/07/04 03:42:53;;;;;;;1.61;1.51;;;;;;;23.27;49.21;101162.33;;;;-47
2019/07/04 03:45:53;;;;;;;1.50;1.40;;;;;;;23.27;49.23;101168.63;;;;-47
2019/07/04 03:48:53;;;;;;;1.57;1.47;;;;;;;23.26;49.24;101166.77;;;;-47
2019/07/04 03:51:53;;;;;;;3.97;2.64;;;;;;;22.64;42.29;101165.47;;;;-47
2019/07/04 03:54:53;;;;;;;4.45;2.67;;;;;;;22.42;41.71;101175.05;;;;-48
2019/07/04 03:57:53;;;;;;;4.46;2.82;;;;;;;22.18;41.34;101167.94;;;;-47
2019/07/04 04:00:53;;;;;;;5.33;2.81;;;;;;;21.98;40.76;101166.92;;;;-47
2019/07/04 04:03:53;;;;;;;5.45;3.06;;;;;;;21.82;40.92;101168.75;;;;-48
2019/07/04 04:06:53;;;;;;;5.45;3.00;;;;;;;21.50;40.65;101171.56;;;;-49
2019/07/04 04:09:53;;;;;;;4.08;2.60;;;;;;;21.41;41.05;101172.42;;;;-48
2019/07/04 04:12:53;;;;;;;4.51;2.91;;;;;;;21.17;40.77;101175.27;;;;-48
2019/07/04 04:15:53;;;;;;;4.85;2.82;;;;;;;20.98;41.05;101177.62;;;;-48
2019/07/04 04:18:53;;;;;;;4.80;2.92;;;;;;;20.91;41.21;101173.73;;;;-48
2019/07/04 04:21:53;;;;;;;5.89;2.92;;;;;;;20.71;41.41;101177.83;;;;-48
2019/07/04 04:24:53;;;;;;;4.61;2.83;;;;;;;20.67;41.66;101177.97;;;;-48
2019/07/04 04:27:53;;;;;;;3.75;2.89;;;;;;;20.61;42.08;101181.69;;;;-56
2019/07/04 04:30:53;;;;;;;3.62;3.01;;;;;;;20.52;42.38;101183.57;;;;-59
2019/07/04 04:33:52;;;;;;;4.23;2.99;;;;;;;20.47;42.73;101185.19;;;;-56
2019/07/04 04:36:53;;;;;;;4.09;2.82;;;;;;;20.36;42.59;101188.47;;;;-48
2019/07/04 04:39:53;;;;;;;6.84;3.08;;;;;;;20.39;42.56;101184.38;;;;-48
2019/07/04 04:42:53;;;;;;;4.06;3.03;;;;;;;20.31;42.81;101185.52;;;;-48
2019/07/04 04:45:53;;;;;;;4.71;2.70;;;;;;;20.29;42.82;101188.84;;;;-48
2019/07/04 04:48:53;;;;;;;4.21;2.94;;;;;;;20.23;42.66;101196.94;;;;-48
2019/07/04 04:51:53;;;;;;;3.95;2.75;;;;;;;20.21;42.75;101194.77;;;;-48
2019/07/04 04:54:53;;;;;;;3.48;2.69;;;;;;;20.21;42.63;101196.00;;;;-48
2019/07/04 04:57:53;;;;;;;3.59;2.64;;;;;;;20.22;42.74;101197.62;;;;-47
2019/07/04 05:00:53;;;;;;;5.14;2.63;;;;;;;20.25;42.45;101202.02;;;;-48
2019/07/04 05:03:52;;;;;;;5.31;2.71;;;;;;;20.19;42.44;101204.28;;;;-47
2019/07/04 05:06:53;;;;;;;4.53;2.97;;;;;;;20.20;42.54;101205.95;;;;-47
2019/07/04 05:09:53;;;;;;;3.74;2.68;;;;;;;20.16;42.51;101204.78;;;;-48
2019/07/04 05:12:53;;;;;;;6.81;2.94;;;;;;;20.15;42.62;101208.03;;;;-50
2019/07/04 05:15:53;;;;;;;4.87;2.69;;;;;;;20.20;42.49;101208.26;;;;-50
2019/07/04 05:18:52;;;;;;;4.83;2.75;;;;;;;20.28;42.42;101214.16;;;;-51
2019/07/04 05:21:52;;;;;;;3.73;2.75;;;;;;;20.22;42.68;101220.82;;;;-50
2019/07/04 05:24:54;;;;;;;4.34;2.67;;;;;;;20.23;42.21;101217.98;;;;-48
2019/07/04 05:27:52;;;;;;;5.73;2.88;;;;;;;20.29;42.09;101214.44;;;;-48
2019/07/04 05:30:53;;;;;;;4.06;2.51;;;;;;;20.28;42.11;101216.13;;;;-47
2019/07/04 05:33:52;;;;;;;3.96;2.80;;;;;;;20.31;42.39;101220.48;;;;-47
2019/07/04 05:36:53;;;;;;;8.41;2.80;;;;;;;20.37;42.45;101222.25;;;;-49
2019/07/04 05:39:54;;;;;;;3.83;2.65;;;;;;;20.47;42.69;101217.81;;;;-52
2019/07/04 05:42:52;;;;;;;5.18;2.85;;;;;;;20.58;42.90;101222.08;;;;-47
2019/07/04 05:45:53;;;;;;;3.60;2.61;;;;;;;20.66;42.68;101219.03;;;;-50
2019/07/04 05:48:52;;;;;;;4.77;2.40;;;;;;;20.72;42.80;101216.44;;;;-48
2019/07/04 05:51:52;;;;;;;6.09;2.64;;;;;;;20.78;43.03;101212.44;;;;-48
2019/07/04 05:54:52;;;;;;;4.67;2.45;;;;;;;20.76;42.66;101214.84;;;;-48
2019/07/04 05:57:53;;;;;;;3.61;2.35;;;;;;;20.72;42.07;101214.30;;;;-48
2019/07/04 06:00:53;;;;;;;5.85;2.48;;;;;;;20.69;42.30;101216.51;;;;-48
2019/07/04 06:03:52;;;;;;;5.15;2.50;;;;;;;20.69;42.21;101218.52;;;;-48
2019/07/04 06:06:52;;;;;;;8.16;2.60;;;;;;;20.72;42.15;101217.56;;;;-48
2019/07/04 06:09:52;;;;;;;6.11;2.54;;;;;;;20.76;41.43;101216.53;;;;-51
2019/07/04 06:12:52;;;;;;;3.77;2.42;;;;;;;20.76;41.65;101219.89;;;;-52
2019/07/04 06:15:52;;;;;;;6.03;2.41;;;;;;;20.79;40.69;101218.70;;;;-51
2019/07/04 06:18:52;;;;;;;3.29;2.22;;;;;;;20.80;40.41;101215.69;;;;-48
2019/07/04 06:21:53;;;;;;;6.89;2.45;;;;;;;20.81;40.99;101222.09;;;;-48
2019/07/04 06:24:52;;;;;;;4.03;2.23;;;;;;;20.82;40.82;101228.06;;;;-48
2019/07/04 06:27:52;;;;;;;2.29;2.06;;;;;;;20.82;40.73;101230.81;;;;-48
2019/07/04 06:30:52;;;;;;;5.33;2.21;;;;;;;20.84;40.53;101229.34;;;;-48
2019/07/04 06:33:52;;;;;;;2.81;2.07;;;;;;;20.85;40.19;101231.07;;;;-48
2019/07/04 06:36:53;;;;;;;2.49;2.20;;;;;;;20.90;40.15;101232.39;;;;-48
2019/07/04 06:39:52;;;;;;;3.55;2.21;;;;;;;20.94;40.13;101239.89;;;;-50
2019/07/04 06:42:53;;;;;;;4.95;2.30;;;;;;;20.94;39.82;101239.88;;;;-51
2019/07/04 06:45:52;;;;;;;3.14;2.15;;;;;;;20.93;40.09;101236.03;;;;-51
2019/07/04 06:48:52;;;;;;;3.01;2.12;;;;;;;20.99;40.34;101234.67;;;;-51
2019/07/04 06:51:53;;;;;;;3.08;2.17;;;;;;;20.98;39.71;101231.86;;;;-51
2019/07/04 06:54:53;;;;;;;3.20;2.03;;;;;;;21.01;39.57;101231.34;;;;-50
2019/07/04 06:57:52;;;;;;;4.89;2.25;;;;;;;21.01;39.90;101230.00;;;;-52
2019/07/04 07:00:53;;;;;;;3.83;2.21;;;;;;;21.06;40.02;101234.52;;;;-52
2019/07/04 07:03:53;;;;;;;4.97;2.03;;;;;;;21.10;40.09;101232.70;;;;-52
2019/07/04 07:06:53;;;;;;;2.64;1.90;;;;;;;21.16;40.37;101236.03;;;;-52
2019/07/04 07:09:52;;;;;;;3.37;2.03;;;;;;;21.13;39.83;101230.73;;;;-52
2019/07/04 07:12:52;;;;;;;3.12;1.98;;;;;;;21.17;39.98;101232.82;;;;-52
2019/07/04 07:15:52;;;;;;;5.01;2.03;;;;;;;21.20;40.31;101230.86;;;;-52
2019/07/04 07:18:53;;;;;;;5.37;2.09;;;;;;;21.24;40.24;101235.92;;;;-53
2019/07/04 07:21:52;;;;;;;5.53;2.20;;;;;;;21.28;40.42;101233.33;;;;-52
2019/07/04 07:24:52;;;;;;;4.76;2.21;;;;;;;21.33;40.59;101233.92;;;;-52
2019/07/04 07:27:53;;;;;;;6.07;2.10;;;;;;;21.35;40.56;101231.89;;;;-52
2019/07/04 07:30:53;;;;;;;4.99;2.14;;;;;;;21.36;40.54;101236.87;;;;-52
2019/07/04 07:33:52;;;;;;;4.84;2.22;;;;;;;21.39;40.43;101236.86;;;;-52
2019/07/04 07:36:52;;;;;;;5.95;2.26;;;;;;;21.43;40.62;101237.33;;;;-51
2019/07/04 07:39:52;;;;;;;7.74;2.46;;;;;;;21.45;40.93;101238.33;;;;-52
2019/07/04 07:42:52;;;;;;;6.21;2.01;;;;;;;21.48;41.01;101238.02;;;;-56
2019/07/04 07:45:52;;;;;;;4.41;2.03;;;;;;;21.52;41.10;101239.95;;;;-56
2019/07/04 07:48:53;;;;;;;6.15;2.31;;;;;;;21.55;41.10;101235.73;;;;-51
2019/07/04 07:51:53;;;;;;;4.13;2.17;;;;;;;21.58;41.39;101234.09;;;;-51
2019/07/04 07:54:52;;;;;;;4.32;2.13;;;;;;;21.60;41.49;101228.57;;;;-51
2019/07/04 07:57:52;;;;;;;7.16;2.10;;;;;;;21.62;41.59;101223.43;;;;-48
2019/07/04 08:00:53;;;;;;;5.63;2.09;;;;;;;21.65;41.74;101227.78;;;;-48
2019/07/04 08:03:52;;;;;;;4.77;2.19;;;;;;;21.68;41.87;101221.89;;;;-51
2019/07/04 08:06:53;;;;;;;4.96;2.11;;;;;;;21.70;41.93;101214.26;;;;-48
2019/07/04 08:09:53;;;;;;;4.65;2.26;;;;;;;21.71;42.03;101218.28;;;;-57
2019/07/04 08:12:53;;;;;;;4.88;2.20;;;;;;;21.74;42.19;101216.13;;;;-52
2019/07/04 08:15:53;;;;;;;6.19;2.17;;;;;;;21.77;42.39;101219.97;;;;-48
2019/07/04 08:18:52;;;;;;;4.79;2.01;;;;;;;21.79;42.62;101215.63;;;;-48
2019/07/04 08:21:53;;;;;;;6.03;2.27;;;;;;;21.82;42.58;101222.73;;;;-59
2019/07/04 08:24:53;;;;;;;2.25;1.89;;;;;;;21.85;42.74;101221.30;;;;-49
2019/07/04 08:27:53;;;;;;;3.14;1.88;;;;;;;21.88;42.91;101221.00;;;;-49
2019/07/04 08:30:53;;;;;;;4.86;2.16;;;;;;;21.90;43.01;101212.95;;;;-49
2019/07/04 08:33:53;;;;;;;5.49;2.17;;;;;;;21.94;43.00;101214.31;;;;-49
2019/07/04 08:36:52;;;;;;;6.57;2.09;;;;;;;21.97;43.10;101209.14;;;;-51
2019/07/04 08:39:52;;;;;;;3.06;1.94;;;;;;;21.99;43.22;101214.28;;;;-51
2019/07/04 08:42:53;;;;;;;2.83;1.93;;;;;;;22.01;43.15;101209.56;;;;-51
2019/07/04 08:45:53;;;;;;;3.92;2.00;;;;;;;22.04;43.08;101205.49;;;;-61
2019/07/04 08:48:52;;;;;;;5.78;2.19;;;;;;;22.06;43.18;101194.38;;;;-52
2019/07/04 08:51:53;;;;;;;2.63;1.90;;;;;;;22.07;43.04;101195.27;;;;-51
2019/07/04 08:54:53;;;;;;;5.13;2.15;;;;;;;22.10;43.20;101198.59;;;;-53
2019/07/04 08:57:52;;;;;;;3.76;1.91;;;;;;;22.11;43.20;101195.38;;;;-51
2019/07/04 09:00:53;;;;;;;3.97;2.02;;;;;;;22.14;43.44;101194.28;;;;-51
2019/07/04 09:03:52;;;;;;;7.27;2.16;;;;;;;22.16;43.60;101193.21;;;;-51
2019/07/04 09:06:53;;;;;;;5.45;2.07;;;;;;;22.18;43.76;101194.31;;;;-60
2019/07/04 09:09:52;;;;;;;8.77;2.25;;;;;;;22.20;43.76;101191.20;;;;-49
2019/07/04 09:12:53;;;;;;;15.49;2.49;;;;;;;22.22;44.04;101195.50;;;;-62
2019/07/04 09:15:53;;;;;;;12.38;2.63;;;;;;;22.23;43.80;101189.94;;;;-58
2019/07/04 09:18:53;;;;;;;7.42;2.37;;;;;;;22.25;43.86;101190.97;;;;-58
2019/07/04 09:21:52;;;;;;;5.08;2.19;;;;;;;22.27;43.75;101193.25;;;;-57
2019/07/04 09:24:52;;;;;;;7.01;2.05;;;;;;;22.28;43.75;101190.66;;;;-64
2019/07/04 09:27:52;;;;;;;12.00;2.19;;;;;;;22.29;44.08;101186.00;;;;-54
2019/07/04 09:30:52;;;;;;;5.01;2.07;;;;;;;22.29;43.97;101183.74;;;;-53
2019/07/04 09:33:52;;;;;;;6.35;2.17;;;;;;;22.30;44.11;101182.44;;;;-54
2019/07/04 09:36:53;;;;;;;5.51;2.23;;;;;;;22.30;44.10;101181.05;;;;-54
2019/07/04 09:39:52;;;;;;;5.19;2.01;;;;;;;22.31;44.11;101181.20;;;;-54
2019/07/04 09:42:52;;;;;;;4.93;2.21;;;;;;;22.30;44.12;101180.98;;;;-52
2019/07/04 09:45:52;;;;;;;6.13;2.02;;;;;;;22.31;44.16;101176.55;;;;-53
2019/07/04 09:48:52;;;;;;;5.44;1.90;;;;;;;22.31;44.21;101179.08;;;;-53
2019/07/04 09:51:52;;;;;;;8.16;2.32;;;;;;;22.33;44.36;101172.44;;;;-52
2019/07/04 09:54:53;;;;;;;7.22;2.28;;;;;;;22.35;44.43;101168.52;;;;-52
2019/07/04 09:57:53;;;;;;;9.02;2.19;;;;;;;22.37;44.32;101169.95;;;;-51
2019/07/04 10:00:53;;;;;;;8.73;2.04;;;;;;;22.38;44.48;101168.82;;;;-55
2019/07/04 10:03:52;;;;;;;3.30;2.00;;;;;;;22.39;44.57;101167.69;;;;-50
2019/07/04 10:06:52;;;;;;;4.52;2.03;;;;;;;22.41;44.53;101168.85;;;;-52
2019/07/04 10:09:52;;;;;;;7.47;2.29;;;;;;;22.43;44.51;101160.73;;;;-52
2019/07/04 10:12:52;;;;;;;21.17;2.63;;;;;;;22.43;44.77;101161.80;;;;-52
2019/07/04 10:15:52;;;;;;;5.79;2.00;;;;;;;22.45;44.68;101159.94;;;;-54
2019/07/04 10:18:52;;;;;;;4.99;2.13;;;;;;;22.47;44.60;101158.61;;;;-54
2019/07/04 10:21:53;;;;;;;5.83;2.00;;;;;;;22.49;44.59;101157.31;;;;-51
2019/07/04 10:24:52;;;;;;;8.33;2.15;;;;;;;22.49;44.90;101151.02;;;;-54
2019/07/04 10:27:52;;;;;;;5.41;2.10;;;;;;;22.49;44.71;101151.23;;;;-53
2019/07/04 10:30:52;;;;;;;5.91;2.19;;;;;;;22.49;44.65;101150.55;;;;-53
2019/07/04 10:33:53;;;;;;;5.33;2.03;;;;;;;22.49;44.72;101146.48;;;;-52
2019/07/04 10:36:52;;;;;;;4.09;2.17;;;;;;;22.49;44.68;101142.03;;;;-53
2019/07/04 10:39:53;;;;;;;5.95;1.93;;;;;;;22.48;44.70;101140.41;;;;-53
2019/07/04 10:42:53;;;;;;;6.81;2.03;;;;;;;22.49;44.67;101141.16;;;;-52
2019/07/04 10:45:53;;;;;;;7.27;2.19;;;;;;;22.49;44.69;101135.70;;;;-52
2019/07/04 10:48:52;;;;;;;5.53;2.00;;;;;;;22.48;44.64;101132.30;;;;-53
2019/07/04 10:51:52;;;;;;;3.96;2.12;;;;;;;22.48;44.70;101129.70;;;;-52
2019/07/04 10:54:52;;;;;;;4.88;1.94;;;;;;;22.48;44.73;101124.78;;;;-52
2019/07/04 10:57:53;;;;;;;3.92;1.87;;;;;;;22.47;44.72;101124.72;;;;-53
2019/07/04 11:00:53;;;;;;;3.32;1.86;;;;;;;22.47;44.78;101121.41;;;;-53
2019/07/04 11:03:53;;;;;;;4.37;2.15;;;;;;;22.47;44.79;101121.24;;;;-54
2019/07/04 11:06:54;;;;;;;4.49;1.98;;;;;;;22.47;44.76;101114.91;;;;-53
2019/07/04 11:09:52;;;;;;;5.80;1.89;;;;;;;22.46;44.80;101110.19;;;;-51
2019/07/04 11:12:52;;;;;;;2.69;1.67;;;;;;;22.47;44.84;101114.01;;;;-54
2019/07/04 11:15:52;;;;;;;4.29;1.96;;;;;;;22.47;44.89;101113.73;;;;-53
2019/07/04 11:18:52;;;;;;;4.31;2.00;;;;;;;22.47;44.89;101111.14;;;;-53
2019/07/04 11:21:52;;;;;;;4.57;1.85;;;;;;;22.47;45.00;101108.78;;;;-53
2019/07/04 11:24:53;;;;;;;4.18;2.00;;;;;;;22.46;44.89;101103.70;;;;-51
2019/07/04 11:27:52;;;;;;;2.63;1.79;;;;;;;22.47;44.99;101107.61;;;;-50
2019/07/04 11:30:52;;;;;;;3.41;1.89;;;;;;;22.47;44.98;101105.38;;;;-50
2019/07/04 11:33:52;;;;;;;3.24;1.70;;;;;;;22.47;44.99;101106.39;;;;-50
2019/07/04 11:36:53;;;;;;;4.88;1.85;;;;;;;22.47;45.00;101097.34;;;;-51
2019/07/04 11:39:52;;;;;;;3.93;1.92;;;;;;;22.48;45.05;101098.19;;;;-51
2019/07/04 11:42:53;;;;;;;2.77;1.92;;;;;;;22.47;45.06;101089.59;;;;-50
2019/07/04 11:45:53;;;;;;;3.87;1.68;;;;;;;22.47;45.13;101088.76;;;;-50
2019/07/04 11:48:52;;;;;;;3.65;1.82;;;;;;;22.48;45.08;101085.94;;;;-50
2019/07/04 11:51:52;;;;;;;4.83;1.80;;;;;;;22.49;45.29;101083.02;;;;-47
2019/07/04 11:54:52;;;;;;;3.82;1.87;;;;;;;22.52;45.39;101076.78;;;;-48
2019/07/04 11:57:53;;;;;;;3.57;1.80;;;;;;;22.53;45.43;101074.30;;;;-48
2019/07/04 12:00:53;;;;;;;3.77;1.80;;;;;;;22.54;45.47;101070.70;;;;-49
2019/07/04 12:03:52;;;;;;;4.26;1.90;;;;;;;22.56;45.43;101063.45;;;;-51
2019/07/04 12:06:52;;;;;;;2.45;1.84;;;;;;;22.57;45.44;101052.21;;;;-50
2019/07/04 12:09:53;;;;;;;3.95;1.85;;;;;;;22.61;45.45;101047.25;;;;-49
2019/07/04 12:12:53;;;;;;;2.83;1.85;;;;;;;22.64;45.45;101046.50;;;;-49
2019/07/04 12:15:53;;;;;;;3.97;1.80;;;;;;;22.66;45.47;101040.52;;;;-51
2019/07/04 12:18:53;;;;;;;5.45;2.21;;;;;;;22.68;45.48;101034.98;;;;-49
2019/07/04 12:21:52;;;;;;;7.17;1.86;;;;;;;22.70;45.76;101033.65;;;;-48
2019/07/04 12:24:52;;;;;;;10.99;2.53;;;;;;;22.73;45.80;101030.20;;;;-48
2019/07/04 12:27:53;;;;;;;11.49;2.18;;;;;;;22.72;45.61;101027.30;;;;-48
2019/07/04 12:30:53;;;;;;;9.26;2.15;;;;;;;22.72;45.64;101023.02;;;;-49
2019/07/04 12:33:52;;;;;;;8.94;2.11;;;;;;;22.71;45.84;101019.04;;;;-49
2019/07/04 12:36:52;;;;;;;6.60;2.06;;;;;;;22.73;45.90;101018.81;;;;-51
2019/07/04 12:39:52;;;;;;;7.56;2.37;;;;;;;22.73;45.85;101015.31;;;;-53
2019/07/04 12:42:53;;;;;;;10.11;2.09;;;;;;;22.73;45.81;101014.23;;;;-54
2019/07/04 12:45:52;;;;;;;9.30;2.17;;;;;;;22.74;45.75;101011.11;;;;-54
2019/07/04 12:48:52;;;;;;;5.89;2.01;;;;;;;22.74;45.84;101013.47;;;;-54
2019/07/04 12:51:52;;;;;;;8.17;2.03;;;;;;;22.75;45.96;101008.11;;;;-51
2019/07/04 12:54:53;;;;;;;7.88;2.40;;;;;;;22.76;45.93;101004.38;;;;-51
2019/07/04 12:57:52;;;;;;;9.12;2.15;;;;;;;22.76;45.98;100998.39;;;;-51
2019/07/04 13:00:52;;;;;;;9.09;2.13;;;;;;;22.77;45.89;100992.06;;;;-50
2019/07/04 13:03:52;;;;;;;7.16;2.08;;;;;;;22.77;45.78;100998.73;;;;-52
2019/07/04 13:06:53;;;;;;;11.57;2.10;;;;;;;22.78;45.79;101005.98;;;;-52
2019/07/04 13:09:52;;;;;;;10.08;1.94;;;;;;;22.77;45.83;100995.66;;;;-52
2019/07/04 13:12:52;;;;;;;7.27;2.19;;;;;;;22.77;45.87;100990.55;;;;-52
2019/07/04 13:15:52;;;;;;;7.13;2.03;;;;;;;22.77;45.84;100978.66;;;;-52
2019/07/04 13:18:52;;;;;;;3.62;1.97;;;;;;;22.76;45.76;100972.83;;;;-52
2019/07/04 13:21:52;;;;;;;6.46;1.91;;;;;;;22.76;45.76;100972.55;;;;-52
2019/07/04 13:24:52;;;;;;;4.68;1.86;;;;;;;22.75;45.77;100967.91;;;;-52
2019/07/04 13:27:53;;;;;;;4.47;2.05;;;;;;;22.75;45.73;100961.13;;;;-52
2019/07/04 13:30:52;;;;;;;6.31;1.93;;;;;;;22.74;45.76;100942.61;;;;-52
2019/07/04 13:33:53;;;;;;;6.94;1.89;;;;;;;22.75;45.82;100941.53;;;;-52
2019/07/04 13:36:54;;;;;;;4.38;2.07;;;;;;;22.74;45.73;100920.44;;;;-53
2019/07/04 13:39:53;;;;;;;8.35;1.98;;;;;;;22.74;45.79;100938.87;;;;-52
2019/07/04 13:42:52;;;;;;;3.58;1.74;;;;;;;22.73;45.81;100942.97;;;;-52
2019/07/04 13:45:52;;;;;;;6.13;1.95;;;;;;;22.73;45.83;100935.39;;;;-52
2019/07/04 13:48:52;;;;;;;5.51;1.91;;;;;;;22.73;45.89;100933.03;;;;-52
2019/07/04 13:51:52;;;;;;;6.55;1.97;;;;;;;22.72;45.84;100927.20;;;;-52
2019/07/04 13:54:52;;;;;;;3.26;1.81;;;;;;;22.72;45.92;100924.17;;;;-52
2019/07/04 13:57:52;;;;;;;7.11;1.95;;;;;;;22.72;45.92;100920.98;;;;-52
2019/07/04 14:00:52;;;;;;;2.39;1.77;;;;;;;22.72;45.89;100918.02;;;;-52
2019/07/04 14:03:53;;;;;;;4.80;1.77;;;;;;;22.72;45.95;100918.95;;;;-53
2019/07/04 14:06:52;;;;;;;2.51;1.79;;;;;;;22.72;45.89;100918.62;;;;-52
2019/07/04 14:09:52;;;;;;;10.69;2.27;;;;;;;22.73;46.16;100908.69;;;;-51
2019/07/04 14:12:52;;;;;;;8.39;1.97;;;;;;;22.73;46.41;100908.66;;;;-52
2019/07/04 14:15:52;;;;;;;4.84;1.85;;;;;;;22.74;46.37;100905.49;;;;-51
2019/07/04 14:18:52;;;;;;;4.54;1.80;;;;;;;22.76;46.38;100898.36;;;;-51
2019/07/04 14:21:52;;;;;;;3.79;1.77;;;;;;;22.79;46.37;100892.41;;;;-52
2019/07/04 14:24:52;;;;;;;4.70;1.85;;;;;;;22.81;46.37;100887.87;;;;-53
2019/07/04 14:27:52;;;;;;;2.93;1.84;;;;;;;22.82;46.42;100887.00;;;;-52
2019/07/04 14:30:52;;;;;;;5.13;1.83;;;;;;;22.84;46.61;100881.48;;;;-50
2019/07/04 14:33:52;;;;;;;3.45;1.70;;;;;;;22.86;46.59;100883.75;;;;-51
2019/07/04 14:36:52;;;;;;;3.71;1.77;;;;;;;22.88;46.78;100880.63;;;;-51
2019/07/04 14:39:52;;;;;;;3.77;1.95;;;;;;;22.89;46.76;100876.45;;;;-51
2019/07/04 14:42:52;;;;;;;4.51;1.80;;;;;;;22.90;46.84;100877.60;;;;-52
2019/07/04 14:45:53;;;;;;;4.15;1.95;;;;;;;22.92;46.87;100872.35;;;;-51
2019/07/04 14:48:52;;;;;;;3.50;1.80;;;;;;;22.93;46.77;100869.02;;;;-52
2019/07/04 14:51:52;;;;;;;4.94;1.90;;;;;;;22.94;46.80;100866.30;;;;-51
2019/07/04 14:54:52;;;;;;;4.20;1.60;;;;;;;22.95;46.81;100862.09;;;;-55
2019/07/04 14:57:52;;;;;;;3.41;1.77;;;;;;;22.95;46.79;100854.20;;;;-52
2019/07/04 15:00:52;;;;;;;4.78;1.81;;;;;;;22.97;46.85;100860.23;;;;-52
2019/07/04 15:03:52;;;;;;;6.17;1.80;;;;;;;22.97;46.83;100860.34;;;;-51
2019/07/04 15:06:53;;;;;;;5.23;1.77;;;;;;;22.97;46.71;100852.39;;;;-51
2019/07/04 15:09:52;;;;;;;3.45;1.85;;;;;;;22.96;46.77;100849.86;;;;-51
2019/07/04 15:12:52;;;;;;;4.71;1.81;;;;;;;22.96;46.78;100848.92;;;;-52
2019/07/04 15:15:53;;;;;;;3.23;1.81;;;;;;;22.95;46.80;100847.20;;;;-51
2019/07/04 15:18:52;;;;;;;4.29;1.91;;;;;;;22.97;46.95;100846.94;;;;-53
2019/07/04 15:21:52;;;;;;;4.39;1.99;;;;;;;22.98;46.80;100847.74;;;;-49
2019/07/04 15:24:53;;;;;;;6.25;1.99;;;;;;;23.00;46.79;100841.48;;;;-50
2019/07/04 15:27:52;;;;;;;3.04;1.80;;;;;;;23.01;46.88;100840.00;;;;-50
2019/07/04 15:30:52;;;;;;;3.45;1.75;;;;;;;23.02;46.90;100836.84;;;;-50
2019/07/04 15:33:53;;;;;;;4.42;2.01;;;;;;;23.03;46.88;100839.03;;;;-48
2019/07/04 15:36:53;;;;;;;2.15;1.59;;;;;;;23.05;46.96;100843.81;;;;-48
2019/07/04 15:39:52;;;;;;;3.17;1.62;;;;;;;23.05;46.96;100837.38;;;;-47
2019/07/04 15:42:52;;;;;;;3.69;1.71;;;;;;;23.06;46.93;100834.12;;;;-46
2019/07/04 15:45:52;;;;;;;3.19;1.68;;;;;;;23.08;47.00;100834.19;;;;-52
2019/07/04 15:48:53;;;;;;;4.95;1.73;;;;;;;23.09;46.96;100829.61;;;;-47
2019/07/04 15:51:52;;;;;;;3.07;1.53;;;;;;;23.10;46.88;100829.20;;;;-49
2019/07/04 15:54:53;;;;;;;3.63;1.73;;;;;;;23.10;46.98;100827.79;;;;-48
2019/07/04 15:57:52;;;;;;;4.37;1.91;;;;;;;23.10;46.94;100821.89;;;;-50
2019/07/04 16:00:53;;;;;;;3.14;1.63;;;;;;;23.10;46.92;100819.20;;;;-49
2019/07/04 16:03:53;;;;;;;5.80;1.79;;;;;;;23.12;47.16;100818.36;;;;-48
2019/07/04 16:06:53;;;;;;;2.67;1.63;;;;;;;23.12;46.98;100813.71;;;;-49
2019/07/04 16:09:53;;;;;;;3.73;1.69;;;;;;;23.12;47.06;100810.95;;;;-49
2019/07/04 16:12:55;;;;;;;3.22;1.67;;;;;;;23.14;47.08;100810.81;;;;-50
2019/07/04 16:15:53;;;;;;;5.29;2.01;;;;;;;23.14;47.21;100806.44;;;;-47
2019/07/04 16:18:52;;;;;;;7.17;1.77;;;;;;;23.14;47.20;100800.97;;;;-49
2019/07/04 16:21:52;;;;;;;5.89;1.98;;;;;;;23.15;47.20;100799.39;;;;-58
2019/07/04 16:24:52;;;;;;;3.67;1.81;;;;;;;23.16;47.20;100795.48;;;;-58
2019/07/04 16:27:53;;;;;;;5.23;1.89;;;;;;;23.15;47.21;100790.22;;;;-61
2019/07/04 16:30:52;;;;;;;4.62;1.86;;;;;;;23.17;47.32;100787.83;;;;-61
2019/07/04 16:33:52;;;;;;;5.37;2.01;;;;;;;23.18;46.92;100776.68;;;;-61
2019/07/04 16:36:52;;;;;;;2.99;1.76;;;;;;;23.18;46.93;100782.31;;;;-58
2019/07/04 16:39:52;;;;;;;4.69;1.70;;;;;;;23.19;47.07;100783.86;;;;-62